createdAt,value
2022-08-03T00:00:43.420Z,96.20
2022-08-03T00:03:12.630Z,96.10
2022-08-03T00:06:04.034Z,96.10
2022-08-03T00:08:34.130Z,96.10
2022-08-03T00:11:09.636Z,96.10
2022-08-03T00:13:38.880Z,96.00
2022-08-03T00:16:08.113Z,96.10
2022-08-03T00:18:37.127Z,95.80
2022-08-03T00:21:07.142Z,95.80
2022-08-03T00:23:51.312Z,95.70
2022-08-03T00:26:23.055Z,95.60
2022-08-03T00:28:52.765Z,95.40
2022-08-03T00:31:33.930Z,95.40
2022-08-03T00:34:11.489Z,95.40
2022-08-03T00:36:42.066Z,95.30
2022-08-03T00:39:11.557Z,95.20
2022-08-03T00:41:40.903Z,95.00
2022-08-03T00:44:10.256Z,94.60
2022-08-03T00:46:39.592Z,94.80
2022-08-03T00:49:09.373Z,94.80
2022-08-03T00:51:38.817Z,94.80
2022-08-03T00:54:08.173Z,94.80
2022-08-03T00:56:39.856Z,94.80
2022-08-03T00:59:31.978Z,95.00
2022-08-03T01:02:01.402Z,94.50
2022-08-03T01:04:30.706Z,94.50
2022-08-03T01:07:15.269Z,94.40
2022-08-03T01:09:55.527Z,94.40
2022-08-03T01:13:59.170Z,94.40
2022-08-03T01:16:14.701Z,94.40
2022-08-03T01:18:54.979Z,94.00
2022-08-03T01:21:33.351Z,94.00
2022-08-03T01:24:47.179Z,93.80
2022-08-03T01:27:35.895Z,93.60
2022-08-03T01:30:09.811Z,93.60
2022-08-03T01:32:59.007Z,93.40
2022-08-03T01:36:10.706Z,93.40
2022-08-03T01:38:46.072Z,93.30
2022-08-03T01:41:21.846Z,93.20
2022-08-03T01:44:26.663Z,93.10
2022-08-03T01:46:48.909Z,93.20
2022-08-03T01:49:19.589Z,93.10
2022-08-03T01:52:04.587Z,93.10
2022-08-03T01:54:42.367Z,93.10
2022-08-03T01:57:12.786Z,93.00
2022-08-03T01:59:43.608Z,92.90
2022-08-03T02:02:32.955Z,92.90
2022-08-03T02:05:10.840Z,92.80
2022-08-03T02:07:43.569Z,93.20
2022-08-03T02:10:34.734Z,92.50
2022-08-03T02:13:08.461Z,92.40
2022-08-03T02:15:39.845Z,92.20
2022-08-03T02:18:11.863Z,91.90
2022-08-03T02:20:42.170Z,92.10
2022-08-03T02:23:11.664Z,91.60
2022-08-03T02:25:54.586Z,91.50
2022-08-03T02:28:28.244Z,91.20
2022-08-03T02:30:58.721Z,90.90
2022-08-03T02:33:34.700Z,90.80
2022-08-03T02:36:05.938Z,90.70
2022-08-03T02:38:38.556Z,90.50
2022-08-03T02:41:15.090Z,90.50
2022-08-03T02:44:06.558Z,90.00
2022-08-03T02:46:41.232Z,90.00
2022-08-03T02:49:49.574Z,89.70
2022-08-03T02:52:03.393Z,89.80
2022-08-03T02:54:33.716Z,89.00
2022-08-03T02:57:04.039Z,89.00
2022-08-03T02:59:33.942Z,88.50
2022-08-03T03:02:05.099Z,87.90
2022-08-03T03:04:35.450Z,87.60
2022-08-03T03:07:05.818Z,87.80
2022-08-03T03:09:40.172Z,87.20
2022-08-03T03:12:13.167Z,86.70
2022-08-03T03:14:43.193Z,87.00
2022-08-03T03:17:15.761Z,86.80
2022-08-03T03:19:46.741Z,87.00
2022-08-03T03:22:17.226Z,86.90
2022-08-03T03:24:48.367Z,86.80
2022-08-03T03:27:17.985Z,86.60
2022-08-03T03:29:47.621Z,86.40
2022-08-03T03:32:20.373Z,86.10
2022-08-03T03:34:50.104Z,86.60
2022-08-03T03:37:20.379Z,86.50
2022-08-03T03:39:49.730Z,85.30
2022-08-03T03:42:18.907Z,85.30
2022-08-03T03:44:48.113Z,84.80
2022-08-03T03:47:17.355Z,84.10
2022-08-03T03:50:01.849Z,83.90
2022-08-03T03:52:31.112Z,83.90
2022-08-03T03:55:01.305Z,83.90
2022-08-03T03:57:31.221Z,84.00
2022-08-03T04:00:02.135Z,81.70
2022-08-03T04:02:55.815Z,83.40
2022-08-03T04:05:48.704Z,82.80
2022-08-03T04:09:00.023Z,84.60
2022-08-03T04:11:41.060Z,83.00
2022-08-03T04:14:34.187Z,83.50
2022-08-03T04:17:08.803Z,81.00
2022-08-03T04:19:51.457Z,84.40
2022-08-03T04:22:25.671Z,84.30
2022-08-03T04:25:19.321Z,84.30
2022-08-03T04:28:08.063Z,82.50
2022-08-03T04:30:48.648Z,83.00
2022-08-03T04:33:19.010Z,77.30
2022-08-03T04:36:01.276Z,81.50
2022-08-03T04:38:38.286Z,82.00
2022-08-03T04:41:08.101Z,77.00
2022-08-03T04:43:40.706Z,80.30
2022-08-03T04:46:11.637Z,79.20
2022-08-03T04:48:44.755Z,80.00
2022-08-03T04:51:14.851Z,80.50
2022-08-03T04:53:45.699Z,79.70
2022-08-03T04:56:14.873Z,80.20
2022-08-03T04:58:48.001Z,80.30
2022-08-03T05:01:18.747Z,79.70
2022-08-03T05:03:48.318Z,80.20
2022-08-03T05:06:17.466Z,80.30
2022-08-03T05:08:47.071Z,80.20
2022-08-03T05:11:18.911Z,80.00
2022-08-03T05:13:48.710Z,80.40
2022-08-03T05:16:18.175Z,80.00
2022-08-03T05:18:47.296Z,79.00
2022-08-03T05:21:19.740Z,79.40
2022-08-03T05:23:49.166Z,78.90
2022-08-03T05:26:18.662Z,77.90
2022-08-03T05:28:50.998Z,77.40
2022-08-03T05:31:21.377Z,79.10
2022-08-03T05:33:50.872Z,79.00
2022-08-03T05:36:20.197Z,78.70
2022-08-03T05:38:49.610Z,78.60
2022-08-03T05:41:21.813Z,78.70
2022-08-03T05:43:55.100Z,78.60
2022-08-03T05:46:24.947Z,78.70
2022-08-03T05:48:54.477Z,78.70
2022-08-03T05:51:23.847Z,79.50
2022-08-03T05:53:53.403Z,78.90
2022-08-03T05:56:26.871Z,79.20
2022-08-03T05:58:56.314Z,79.00
2022-08-03T06:01:26.136Z,79.40
2022-08-03T06:03:55.539Z,79.90
2022-08-03T06:06:25.367Z,79.80
2022-08-03T06:08:56.668Z,80.10
2022-08-03T06:11:26.166Z,79.90
2022-08-03T06:13:55.449Z,79.30
2022-08-03T06:16:24.788Z,78.40
2022-08-03T06:18:54.097Z,78.20
2022-08-03T06:21:23.440Z,78.50
2022-08-03T06:23:56.500Z,78.30
2022-08-03T06:26:30.000Z,78.10
2022-08-03T06:28:59.376Z,76.80
2022-08-03T06:31:32.757Z,77.20
2022-08-03T06:34:34.016Z,76.90
2022-08-03T06:37:01.699Z,76.80
2022-08-03T06:39:31.821Z,75.90
2022-08-03T06:42:01.129Z,76.30
2022-08-03T06:44:30.508Z,76.20
2022-08-03T06:47:00.028Z,76.10
2022-08-03T06:49:29.566Z,75.90
2022-08-03T06:52:37.097Z,76.00
2022-08-03T06:54:50.020Z,75.20
2022-08-03T06:57:20.214Z,75.20
2022-08-03T07:00:11.051Z,74.60
2022-08-03T07:02:38.921Z,74.60
2022-08-03T07:05:09.476Z,73.80
2022-08-03T07:07:39.697Z,74.20
2022-08-03T07:10:10.220Z,75.10
2022-08-03T07:12:52.805Z,74.10
2022-08-03T07:15:53.706Z,74.00
2022-08-03T07:18:15.967Z,73.10
2022-08-03T07:20:45.412Z,72.90
2022-08-03T07:23:16.090Z,73.60
2022-08-03T07:25:48.675Z,72.30
2022-08-03T07:28:18.067Z,72.90
2022-08-03T07:30:47.380Z,72.90
2022-08-03T07:33:16.782Z,72.00
2022-08-03T07:35:46.069Z,73.40
2022-08-03T07:38:15.459Z,74.30
2022-08-03T07:40:46.404Z,74.50
2022-08-03T07:43:15.971Z,75.20
2022-08-03T07:45:45.424Z,74.50
2022-08-03T07:48:14.801Z,74.00
2022-08-03T07:50:44.138Z,74.80
2022-08-03T07:53:13.765Z,74.80
2022-08-03T07:55:43.540Z,74.50
2022-08-03T07:58:22.065Z,74.10
2022-08-03T08:00:54.183Z,74.00
2022-08-03T08:03:23.582Z,74.50
2022-08-03T08:05:52.840Z,74.40
2022-08-03T08:08:22.775Z,74.10
2022-08-03T08:10:58.519Z,74.90
2022-08-03T08:13:28.496Z,74.40
2022-08-03T08:15:57.833Z,74.80
2022-08-03T08:18:27.246Z,73.70
2022-08-03T08:20:57.045Z,74.00
2022-08-03T08:23:43.453Z,73.60
2022-08-03T08:26:14.380Z,74.00
2022-08-03T08:28:43.582Z,73.60
2022-08-03T08:31:12.742Z,73.90
2022-08-03T08:34:03.032Z,74.30
2022-08-03T08:36:30.988Z,74.70
2022-08-03T08:39:00.128Z,74.20
2022-08-03T08:41:32.334Z,74.80
2022-08-03T08:44:01.808Z,74.90
2022-08-03T08:46:34.819Z,75.30
2022-08-03T08:49:05.067Z,75.60
2022-08-03T08:51:52.742Z,75.90
2022-08-03T08:54:33.727Z,76.90
2022-08-03T08:57:21.107Z,77.40
2022-08-03T08:59:58.035Z,78.00
2022-08-03T09:02:30.724Z,78.60
2022-08-03T09:05:05.341Z,79.40
2022-08-03T09:07:39.050Z,79.60
2022-08-03T09:10:12.948Z,79.50
2022-08-03T09:12:50.586Z,79.40
2022-08-03T09:15:27.180Z,79.60
2022-08-03T09:17:58.417Z,79.80
2022-08-03T09:20:29.986Z,79.80
2022-08-03T09:23:14.064Z,79.70
2022-08-03T09:26:00.478Z,79.70
2022-08-03T09:29:01.756Z,79.70
2022-08-03T09:32:01.329Z,79.70
2022-08-03T09:34:31.413Z,80.00
2022-08-03T09:37:00.781Z,79.90
2022-08-03T09:39:41.332Z,79.60
2022-08-03T09:42:23.820Z,79.60
2022-08-03T09:44:54.080Z,79.60
2022-08-03T09:47:34.718Z,79.60
2022-08-03T09:50:10.740Z,79.50
2022-08-03T09:52:52.340Z,79.30
2022-08-03T09:56:32.874Z,79.40
2022-08-03T09:58:15.422Z,79.30
2022-08-03T10:01:05.235Z,79.10
2022-08-03T10:04:03.096Z,79.00
2022-08-03T10:06:28.810Z,79.40
2022-08-03T10:09:10.107Z,79.60
2022-08-03T10:11:42.297Z,79.60
2022-08-03T10:14:24.572Z,80.00
2022-08-03T10:16:53.947Z,80.80
2022-08-03T10:19:23.436Z,82.00
2022-08-03T10:21:59.585Z,82.80
2022-08-03T10:24:31.579Z,84.60
2022-08-03T10:27:09.429Z,84.60
2022-08-03T10:29:49.629Z,85.60
2022-08-03T10:32:27.810Z,87.10
2022-08-03T10:35:20.859Z,89.20
2022-08-03T10:37:58.905Z,90.10
2022-08-03T10:40:48.032Z,90.80
2022-08-03T10:43:38.364Z,90.80
2022-08-03T10:46:09.680Z,91.20
2022-08-03T10:48:39.722Z,91.00
2022-08-03T10:51:09.234Z,91.00
2022-08-03T10:53:54.322Z,91.10
2022-08-03T10:56:54.982Z,91.10
2022-08-03T10:59:49.550Z,91.80
2022-08-03T11:02:19.072Z,91.60
2022-08-03T11:04:48.507Z,92.60
2022-08-03T11:07:26.038Z,91.70
2022-08-03T11:09:57.765Z,91.70
2022-08-03T11:12:34.906Z,91.30
2022-08-03T11:15:10.206Z,91.20
2022-08-03T11:17:46.407Z,91.10
2022-08-03T11:20:50.398Z,91.20
2022-08-03T11:24:03.214Z,91.60
2022-08-03T11:26:28.716Z,91.30
2022-08-03T11:29:30.635Z,91.30
2022-08-03T11:31:59.973Z,91.70
2022-08-03T11:34:29.177Z,91.30
2022-08-03T11:37:21.554Z,91.10
2022-08-03T11:39:55.502Z,91.40
2022-08-03T11:42:25.107Z,91.40
2022-08-03T11:45:00.383Z,91.50
2022-08-03T11:47:31.516Z,91.50
2022-08-03T11:50:03.077Z,91.50
2022-08-03T11:52:40.227Z,91.60
2022-08-03T11:55:14.158Z,91.60
2022-08-03T11:59:17.464Z,91.70
2022-08-03T12:00:34.307Z,93.60
2022-08-03T12:03:07.048Z,92.20
2022-08-03T12:05:51.498Z,92.00
2022-08-03T12:08:32.937Z,92.10
2022-08-03T12:11:05.657Z,92.20
2022-08-03T12:14:45.122Z,92.10
2022-08-03T12:16:39.317Z,92.40
2022-08-03T12:19:09.308Z,92.40
2022-08-03T12:21:57.286Z,92.30
2022-08-03T12:24:29.595Z,92.50
2022-08-03T12:27:00.108Z,92.40
2022-08-03T12:29:29.720Z,92.40
2022-08-03T12:31:59.259Z,92.40
2022-08-03T12:34:48.041Z,92.30
2022-08-03T12:37:23.212Z,92.90
2022-08-03T12:40:03.081Z,92.40
2022-08-03T12:42:37.565Z,92.50
2022-08-03T12:45:24.250Z,92.70
2022-08-03T12:47:59.801Z,93.00
2022-08-03T12:50:32.265Z,92.60
2022-08-03T12:53:08.980Z,92.70
2022-08-03T12:56:04.229Z,92.70
2022-08-03T12:58:38.363Z,92.80
2022-08-03T13:01:10.766Z,92.90
2022-08-03T13:03:49.660Z,93.00
2022-08-03T13:06:27.882Z,93.00
2022-08-03T13:09:10.888Z,93.10
2022-08-03T13:11:58.061Z,93.40
2022-08-03T13:14:29.581Z,93.20
2022-08-03T13:16:58.999Z,93.60
2022-08-03T13:19:28.359Z,93.40
2022-08-03T13:22:04.264Z,93.30
2022-08-03T13:24:35.038Z,93.30
2022-08-03T13:28:03.679Z,93.30
2022-08-03T13:29:55.826Z,93.40
2022-08-03T13:32:25.393Z,93.50
2022-08-03T13:34:54.459Z,93.50
2022-08-03T13:37:23.926Z,93.50
2022-08-03T13:39:59.923Z,93.50
2022-08-03T13:42:38.936Z,93.70
2022-08-03T13:45:10.087Z,93.90
2022-08-03T13:47:39.393Z,93.70
2022-08-03T13:50:08.791Z,93.80
2022-08-03T13:52:38.350Z,93.80
2022-08-03T13:55:08.666Z,93.80
2022-08-03T13:58:04.847Z,93.90
2022-08-03T14:00:29.478Z,93.90
2022-08-03T14:03:09.574Z,94.00
2022-08-03T14:05:42.672Z,94.00
2022-08-03T14:08:12.351Z,94.10
2022-08-03T14:10:44.110Z,94.20
2022-08-03T14:13:17.485Z,94.30
2022-08-03T14:15:49.863Z,94.30
2022-08-03T14:18:27.633Z,95.80
2022-08-03T14:21:01.930Z,94.70
2022-08-03T14:23:35.592Z,94.60
2022-08-03T14:26:05.254Z,94.70
2022-08-03T14:28:34.719Z,94.60
2022-08-03T14:31:08.457Z,94.70
2022-08-03T14:33:54.498Z,94.60
2022-08-03T14:36:23.807Z,94.80
2022-08-03T14:38:53.273Z,94.70
2022-08-03T14:41:23.377Z,94.80
2022-08-03T14:44:01.354Z,94.80
2022-08-03T14:46:32.626Z,94.80
2022-08-03T14:50:30.829Z,94.80
2022-08-03T14:51:53.894Z,94.80
2022-08-03T14:54:24.382Z,94.90
2022-08-03T14:56:54.028Z,94.90
2022-08-03T14:59:23.447Z,95.00
2022-08-03T15:02:06.042Z,95.00
2022-08-03T15:04:38.286Z,95.00
2022-08-03T15:07:07.777Z,95.10
2022-08-03T15:09:37.296Z,95.00
2022-08-03T15:12:07.927Z,95.00
2022-08-03T15:14:37.913Z,95.10
2022-08-03T15:17:07.604Z,95.10
2022-08-03T15:20:00.510Z,95.10
2022-08-03T15:22:34.940Z,95.10
2022-08-03T15:26:29.291Z,95.20
2022-08-03T15:28:03.759Z,95.20
2022-08-03T15:30:37.237Z,95.30
2022-08-03T15:33:07.091Z,95.40
2022-08-03T15:35:36.243Z,95.50
2022-08-03T15:38:09.231Z,95.40
2022-08-03T15:40:39.153Z,95.50
2022-08-03T15:43:08.340Z,95.60
2022-08-03T15:45:38.518Z,95.50
2022-08-03T15:48:09.133Z,95.50
2022-08-03T15:50:38.244Z,95.60
2022-08-03T15:53:07.357Z,95.70
2022-08-03T15:55:36.519Z,95.80
2022-08-03T15:59:09.239Z,95.80
2022-08-03T16:00:54.736Z,95.90
2022-08-03T16:03:23.933Z,95.90
2022-08-03T16:05:53.224Z,95.90
2022-08-03T16:08:22.885Z,96.00
2022-08-03T16:10:52.008Z,95.90
2022-08-03T16:13:21.554Z,96.00
2022-08-03T16:16:10.651Z,96.00
2022-08-03T16:18:40.283Z,96.20
2022-08-03T16:21:09.499Z,96.20
2022-08-03T16:23:45.214Z,96.20
2022-08-03T16:26:16.594Z,96.30
2022-08-03T16:28:45.700Z,96.30
2022-08-03T16:31:14.762Z,96.20
2022-08-03T16:33:43.870Z,96.50
2022-08-03T16:36:12.989Z,96.50
2022-08-03T16:38:42.150Z,96.40
2022-08-03T16:41:11.290Z,96.30
2022-08-03T16:43:40.869Z,96.30
2022-08-03T16:46:09.942Z,96.30
2022-08-03T16:48:39.538Z,96.30
2022-08-03T16:51:08.607Z,96.30
2022-08-03T16:54:05.377Z,96.10
2022-08-03T16:56:27.059Z,96.10
2022-08-03T16:58:56.076Z,96.10
2022-08-03T17:01:29.228Z,95.90
2022-08-03T17:04:05.130Z,95.40
2022-08-03T17:06:45.093Z,95.30
2022-08-03T17:09:22.208Z,95.50
2022-08-03T17:11:53.348Z,95.60
2022-08-03T17:14:28.295Z,95.60
2022-08-03T17:17:03.812Z,95.90
2022-08-03T17:19:37.452Z,96.30
2022-08-03T17:22:15.990Z,96.30
2022-08-03T17:24:52.494Z,96.80
2022-08-03T17:28:48.299Z,97.20
2022-08-03T17:30:20.187Z,97.60
2022-08-03T17:32:56.743Z,97.20
2022-08-03T17:35:36.736Z,96.90
2022-08-03T17:38:13.738Z,97.20
2022-08-03T17:40:50.220Z,97.60
2022-08-03T17:44:13.678Z,97.90
2022-08-03T17:46:12.251Z,97.70
2022-08-03T17:48:42.693Z,97.70
2022-08-03T17:51:46.388Z,97.90
2022-08-03T17:54:37.923Z,98.00
2022-08-03T17:58:02.644Z,97.90
2022-08-03T18:00:51.518Z,97.90
2022-08-03T18:03:56.964Z,97.60
2022-08-03T18:06:32.644Z,97.80
2022-08-03T18:09:05.251Z,97.40
2022-08-03T18:12:00.004Z,97.40
2022-08-03T18:15:00.903Z,97.30
2022-08-03T18:17:55.159Z,97.80
2022-08-03T18:20:32.712Z,97.40
2022-08-03T18:23:25.538Z,97.00
2022-08-03T18:26:14.856Z,96.90
2022-08-03T18:28:44.786Z,97.10
2022-08-03T18:31:59.435Z,97.10
2022-08-03T18:34:16.801Z,97.10
2022-08-03T18:36:50.762Z,97.10
2022-08-03T18:39:20.419Z,96.90
2022-08-03T18:41:49.656Z,96.70
2022-08-03T18:44:46.563Z,97.00
2022-08-03T18:47:23.487Z,97.30
2022-08-03T18:50:26.218Z,97.60
2022-08-03T18:53:16.584Z,97.40
2022-08-03T18:56:01.850Z,97.60
2022-08-03T18:58:40.597Z,97.10
2022-08-03T19:02:00.793Z,97.40
2022-08-03T19:04:30.531Z,97.90
2022-08-03T19:07:11.191Z,97.80
2022-08-03T19:09:53.859Z,97.50
2022-08-03T19:12:39.965Z,97.60
2022-08-03T19:15:15.816Z,97.40
2022-08-03T19:17:54.172Z,97.20
2022-08-03T19:20:26.359Z,96.80
2022-08-03T19:22:57.663Z,96.60
2022-08-03T19:25:35.368Z,96.90
2022-08-03T19:28:07.316Z,97.00
2022-08-03T19:30:56.388Z,96.60
2022-08-03T19:33:30.069Z,96.80
2022-08-03T19:35:59.816Z,96.50
2022-08-03T19:38:29.945Z,96.70
2022-08-03T19:41:04.773Z,96.80
2022-08-03T19:43:53.248Z,97.10
2022-08-03T19:46:30.560Z,96.90
2022-08-03T19:49:10.670Z,96.90
2022-08-03T19:52:01.482Z,97.00
2022-08-03T19:54:53.239Z,97.10
2022-08-03T19:57:26.905Z,97.30
2022-08-03T19:59:57.762Z,97.20
2022-08-03T20:02:28.051Z,97.50
2022-08-03T20:05:00.441Z,97.20
2022-08-03T20:07:33.877Z,97.20
2022-08-03T20:10:07.021Z,97.30
2022-08-03T20:12:39.468Z,97.30
2022-08-03T20:15:10.185Z,97.30
2022-08-03T20:17:56.149Z,97.20
2022-08-03T20:20:35.748Z,97.10
2022-08-03T20:23:17.311Z,97.20
2022-08-03T20:25:58.652Z,97.10
2022-08-03T20:31:36.227Z,97.20
2022-08-03T20:34:06.661Z,97.10
2022-08-03T20:36:35.801Z,97.10
2022-08-03T20:39:07.663Z,97.20
2022-08-03T20:41:37.273Z,97.40
2022-08-03T20:44:10.604Z,97.30
2022-08-03T20:46:54.983Z,97.20
2022-08-03T20:49:29.707Z,97.30
2022-08-03T20:52:18.519Z,97.30
2022-08-03T20:54:49.048Z,97.30
2022-08-03T20:57:18.952Z,97.40
2022-08-03T20:59:51.483Z,97.30
2022-08-03T21:02:28.970Z,97.30
2022-08-03T21:05:03.042Z,97.20
2022-08-03T21:07:45.484Z,97.30
2022-08-03T21:10:17.165Z,97.20
2022-08-03T21:13:12.319Z,97.10
2022-08-03T21:13:16.824Z,97.30
2022-08-03T21:16:11.532Z,97.60
2022-08-03T21:18:47.276Z,97.50
2022-08-03T21:21:19.696Z,97.50
2022-08-03T21:23:53.685Z,97.40
2022-08-03T21:26:23.720Z,97.40
2022-08-03T21:28:56.345Z,98.40
2022-08-03T21:31:26.945Z,97.60
2022-08-03T21:33:59.183Z,97.50
2022-08-03T21:36:31.004Z,97.50
2022-08-03T21:39:00.974Z,97.40
2022-08-03T21:41:34.155Z,97.50
2022-08-03T21:44:04.070Z,97.50
2022-08-03T21:46:38.879Z,97.70
2022-08-03T21:50:04.711Z,97.70
2022-08-03T21:52:04.976Z,97.70
2022-08-03T21:54:45.259Z,97.90
2022-08-03T21:57:26.337Z,98.00
2022-08-03T21:59:58.443Z,98.00
2022-08-03T22:02:32.106Z,97.90
2022-08-03T22:05:04.851Z,97.90
2022-08-03T22:07:36.224Z,97.80
2022-08-03T22:10:08.043Z,97.80
2022-08-03T22:12:37.464Z,97.90
2022-08-03T22:15:10.235Z,97.90
2022-08-03T22:17:55.917Z,98.00
2022-08-03T22:20:27.001Z,98.00
2022-08-03T22:23:01.493Z,98.00
2022-08-03T22:25:33.419Z,98.10
2022-08-03T22:28:09.696Z,98.00
2022-08-03T22:30:40.336Z,98.10
2022-08-03T22:33:12.264Z,98.00
2022-08-03T22:35:47.810Z,97.80
2022-08-03T22:38:18.616Z,97.90
2022-08-03T22:40:51.867Z,97.90
2022-08-03T22:43:28.679Z,97.80
2022-08-03T22:46:10.338Z,98.00
2022-08-03T22:48:42.016Z,97.90
2022-08-03T22:51:11.725Z,97.90
2022-08-03T22:53:41.695Z,97.90
2022-08-03T22:56:11.222Z,97.80
2022-08-03T22:58:40.477Z,97.80
2022-08-03T23:01:12.808Z,97.80
2022-08-03T23:04:01.150Z,97.70
2022-08-03T23:06:43.639Z,97.80
2022-08-03T23:09:14.657Z,97.90
2022-08-03T23:11:46.333Z,97.80
2022-08-03T23:14:17.813Z,97.80
2022-08-03T23:16:48.368Z,97.90
2022-08-03T23:19:25.505Z,97.80
2022-08-03T23:22:03.483Z,97.90
2022-08-03T23:24:39.676Z,97.90
2022-08-03T23:27:10.787Z,97.90
2022-08-03T23:29:43.898Z,98.00
2022-08-03T23:32:15.905Z,98.00
2022-08-03T23:35:04.311Z,98.10
2022-08-03T23:37:34.764Z,98.00
2022-08-03T23:40:32.210Z,98.10
2022-08-03T23:43:03.169Z,98.10
2022-08-03T23:45:37.159Z,98.10
2022-08-03T23:48:06.108Z,98.20
2022-08-03T23:50:46.356Z,99.20
2022-08-03T23:53:19.698Z,98.40
2022-08-03T23:56:01.243Z,98.20
2022-08-03T23:58:46.206Z,98.10
